sensor_id;sensor_type;location;lat;lon;timestamp;P1;durP1;ratioP1;P2;durP2;ratioP2
46122;SDS011;31856;-35.404;149.120;2022-07-23T00:00:50;2.92;;;1.50;;
46122;SDS011;31856;-35.404;149.120;2022-07-23T00:03:20;2.13;;;1.27;;
46122;SDS011;31856;-35.404;149.120;2022-07-23T00:05:50;3.30;;;1.35;;
46122;SDS011;31856;-35.404;149.120;2022-07-23T00:08:21;2.50;;;1.20;;
46122;SDS011;31856;-35.404;149.120;2022-07-23T00:10:51;2.55;;;1.50;;
46122;SDS011;31856;-35.404;149.120;2022-07-23T00:13:21;1.85;;;1.40;;
46122;SDS011;31856;-35.404;149.120;2022-07-23T00:15:51;1.60;;;1.20;;
46122;SDS011;31856;-35.404;149.120;2022-07-23T00:18:21;2.47;;;1.00;;
46122;SDS011;31856;-35.404;149.120;2022-07-23T00:20:52;2.33;;;1.00;;
46122;SDS011;31856;-35.404;149.120;2022-07-23T00:23:22;3.67;;;1.38;;
46122;SDS011;31856;-35.404;149.120;2022-07-23T00:25:53;1.30;;;1.00;;
46122;SDS011;31856;-35.404;149.120;2022-07-23T00:28:23;2.35;;;1.35;;
46122;SDS011;31856;-35.404;149.120;2022-07-23T00:30:53;2.47;;;1.05;;
46122;SDS011;31856;-35.404;149.120;2022-07-23T00:33:23;4.05;;;1.00;;
46122;SDS011;31856;-35.404;149.120;2022-07-23T00:35:53;2.97;;;1.00;;
46122;SDS011;31856;-35.404;149.120;2022-07-23T00:38:23;1.92;;;0.73;;
46122;SDS011;31856;-35.404;149.120;2022-07-23T00:40:53;5.28;;;1.27;;
46122;SDS011;31856;-35.404;149.120;2022-07-23T00:43:22;2.25;;;0.80;;
46122;SDS011;31856;-35.404;149.120;2022-07-23T00:45:53;1.35;;;0.60;;
46122;SDS011;31856;-35.404;149.120;2022-07-23T00:48:24;2.67;;;0.85;;
46122;SDS011;31856;-35.404;149.120;2022-07-23T00:50:54;1.40;;;0.50;;
46122;SDS011;31856;-35.404;149.120;2022-07-23T00:53:24;0.85;;;0.52;;
46122;SDS011;31856;-35.404;149.120;2022-07-23T00:55:54;1.52;;;0.55;;
46122;SDS011;31856;-35.404;149.120;2022-07-23T00:58:24;3.33;;;0.60;;
46122;SDS011;31856;-35.404;149.120;2022-07-23T01:00:55;2.70;;;0.60;;
46122;SDS011;31856;-35.404;149.120;2022-07-23T01:03:25;2.35;;;0.55;;
46122;SDS011;31856;-35.404;149.120;2022-07-23T01:05:55;2.40;;;0.50;;
46122;SDS011;31856;-35.404;149.120;2022-07-23T01:08:25;3.45;;;0.63;;
46122;SDS011;31856;-35.404;149.120;2022-07-23T01:10:55;1.38;;;0.50;;
46122;SDS011;31856;-35.404;149.120;2022-07-23T01:13:26;1.30;;;0.75;;
46122;SDS011;31856;-35.404;149.120;2022-07-23T01:15:56;2.15;;;0.98;;
46122;SDS011;31856;-35.404;149.120;2022-07-23T01:18:26;2.80;;;0.80;;
46122;SDS011;31856;-35.404;149.120;2022-07-23T01:20:56;1.65;;;0.82;;
46122;SDS011;31856;-35.404;149.120;2022-07-23T01:23:26;4.47;;;1.08;;
46122;SDS011;31856;-35.404;149.120;2022-07-23T01:25:56;2.03;;;0.85;;
46122;SDS011;31856;-35.404;149.120;2022-07-23T01:28:26;2.05;;;0.65;;
46122;SDS011;31856;-35.404;149.120;2022-07-23T01:30:56;1.02;;;0.50;;
46122;SDS011;31856;-35.404;149.120;2022-07-23T01:45:44;0.70;;;0.40;;
46122;SDS011;31856;-35.404;149.120;2022-07-23T01:48:14;0.90;;;0.38;;
46122;SDS011;31856;-35.404;149.120;2022-07-23T01:50:46;2.88;;;0.73;;
46122;SDS011;31856;-35.404;149.120;2022-07-23T01:53:16;3.10;;;0.40;;
46122;SDS011;31856;-35.404;149.120;2022-07-23T01:55:46;0.88;;;0.40;;
46122;SDS011;31856;-35.404;149.120;2022-07-23T01:58:16;2.17;;;0.60;;
46122;SDS011;31856;-35.404;149.120;2022-07-23T02:00:46;0.90;;;0.40;;
46122;SDS011;31856;-35.404;149.120;2022-07-23T02:03:16;3.38;;;1.05;;
46122;SDS011;31856;-35.404;149.120;2022-07-23T02:05:46;0.50;;;0.40;;
46122;SDS011;31856;-35.404;149.120;2022-07-23T02:08:16;4.55;;;0.50;;
46122;SDS011;31856;-35.404;149.120;2022-07-23T02:10:46;1.80;;;0.40;;
46122;SDS011;31856;-35.404;149.120;2022-07-23T02:13:19;1.48;;;0.40;;
46122;SDS011;31856;-35.404;149.120;2022-07-23T02:15:49;2.38;;;0.40;;
46122;SDS011;31856;-35.404;149.120;2022-07-23T02:18:19;0.63;;;0.43;;
46122;SDS011;31856;-35.404;149.120;2022-07-23T02:20:50;0.75;;;0.38;;
46122;SDS011;31856;-35.404;149.120;2022-07-23T02:23:24;2.10;;;0.50;;
46122;SDS011;31856;-35.404;149.120;2022-07-23T02:25:54;2.28;;;0.50;;
46122;SDS011;31856;-35.404;149.120;2022-07-23T02:28:25;1.30;;;0.50;;
46122;SDS011;31856;-35.404;149.120;2022-07-23T02:30:55;2.08;;;0.40;;
46122;SDS011;31856;-35.404;149.120;2022-07-23T02:33:26;1.20;;;0.52;;
46122;SDS011;31856;-35.404;149.120;2022-07-23T02:35:56;1.85;;;0.40;;
46122;SDS011;31856;-35.404;149.120;2022-07-23T02:38:26;0.85;;;0.40;;
46122;SDS011;31856;-35.404;149.120;2022-07-23T02:40:57;0.98;;;0.40;;
46122;SDS011;31856;-35.404;149.120;2022-07-23T02:43:28;0.52;;;0.40;;
46122;SDS011;31856;-35.404;149.120;2022-07-23T03:06:34;1.52;;;0.60;;
46122;SDS011;31856;-35.404;149.120;2022-07-23T03:09:08;0.77;;;0.40;;
46122;SDS011;31856;-35.404;149.120;2022-07-23T03:11:38;2.33;;;0.50;;
46122;SDS011;31856;-35.404;149.120;2022-07-23T03:14:09;2.25;;;0.50;;
46122;SDS011;31856;-35.404;149.120;2022-07-23T03:16:42;1.90;;;0.50;;
46122;SDS011;31856;-35.404;149.120;2022-07-23T03:19:13;5.07;;;0.60;;
46122;SDS011;31856;-35.404;149.120;2022-07-23T03:21:43;2.90;;;0.50;;
46122;SDS011;31856;-35.404;149.120;2022-07-23T03:24:14;1.48;;;0.60;;
46122;SDS011;31856;-35.404;149.120;2022-07-23T03:26:46;2.95;;;0.90;;
46122;SDS011;31856;-35.404;149.120;2022-07-23T03:29:16;2.33;;;1.08;;
46122;SDS011;31856;-35.404;149.120;2022-07-23T03:31:48;2.63;;;0.50;;
46122;SDS011;31856;-35.404;149.120;2022-07-23T03:34:20;2.28;;;1.20;;
46122;SDS011;31856;-35.404;149.120;2022-07-23T03:36:51;2.08;;;0.60;;
46122;SDS011;31856;-35.404;149.120;2022-07-23T03:39:22;1.88;;;0.50;;
46122;SDS011;31856;-35.404;149.120;2022-07-23T03:41:52;3.03;;;0.50;;
46122;SDS011;31856;-35.404;149.120;2022-07-23T03:44:23;0.98;;;0.40;;
46122;SDS011;31856;-35.404;149.120;2022-07-23T03:46:53;0.40;;;0.30;;
46122;SDS011;31856;-35.404;149.120;2022-07-23T03:49:23;2.38;;;0.57;;
46122;SDS011;31856;-35.404;149.120;2022-07-23T03:51:53;1.48;;;0.55;;
46122;SDS011;31856;-35.404;149.120;2022-07-23T03:54:23;1.35;;;0.50;;
46122;SDS011;31856;-35.404;149.120;2022-07-23T03:56:54;2.25;;;0.50;;
46122;SDS011;31856;-35.404;149.120;2022-07-23T03:59:24;0.45;;;0.30;;
46122;SDS011;31856;-35.404;149.120;2022-07-23T04:01:54;1.45;;;0.40;;
46122;SDS011;31856;-35.404;149.120;2022-07-23T04:04:24;0.88;;;0.40;;
46122;SDS011;31856;-35.404;149.120;2022-07-23T04:06:55;2.05;;;0.80;;
46122;SDS011;31856;-35.404;149.120;2022-07-23T04:09:25;1.38;;;0.40;;
46122;SDS011;31856;-35.404;149.120;2022-07-23T04:11:55;0.50;;;0.30;;
46122;SDS011;31856;-35.404;149.120;2022-07-23T04:14:25;0.47;;;0.30;;
46122;SDS011;31856;-35.404;149.120;2022-07-23T04:16:55;3.30;;;0.57;;
46122;SDS011;31856;-35.404;149.120;2022-07-23T04:19:25;0.35;;;0.35;;
46122;SDS011;31856;-35.404;149.120;2022-07-23T04:21:56;2.40;;;0.70;;
46122;SDS011;31856;-35.404;149.120;2022-07-23T04:24:26;2.90;;;0.80;;
46122;SDS011;31856;-35.404;149.120;2022-07-23T04:26:55;0.85;;;0.50;;
46122;SDS011;31856;-35.404;149.120;2022-07-23T04:29:26;0.70;;;0.50;;
46122;SDS011;31856;-35.404;149.120;2022-07-23T04:31:56;2.35;;;0.80;;
46122;SDS011;31856;-35.404;149.120;2022-07-23T04:34:26;1.25;;;0.60;;
46122;SDS011;31856;-35.404;149.120;2022-07-23T04:57:28;0.47;;;0.32;;
46122;SDS011;31856;-35.404;149.120;2022-07-23T04:59:58;0.90;;;0.50;;
46122;SDS011;31856;-35.404;149.120;2022-07-23T05:02:28;1.95;;;0.50;;
46122;SDS011;31856;-35.404;149.120;2022-07-23T05:04:58;1.98;;;0.45;;
46122;SDS011;31856;-35.404;149.120;2022-07-23T05:07:28;1.65;;;0.60;;
46122;SDS011;31856;-35.404;149.120;2022-07-23T05:09:58;1.13;;;0.50;;
46122;SDS011;31856;-35.404;149.120;2022-07-23T05:12:28;1.77;;;0.60;;
